createdAt,value
2023-03-19T00:00:27.974Z,97540.78
2023-03-19T00:02:54.836Z,97548.53
2023-03-19T00:05:22.309Z,97550.69
2023-03-19T00:07:48.769Z,97571.28
2023-03-19T00:10:15.303Z,97579.06
2023-03-19T00:12:41.961Z,97580.88
2023-03-19T00:15:15.822Z,97584.50
2023-03-19T00:17:43.062Z,97591.94
2023-03-19T00:20:11.787Z,97597.38
2023-03-19T00:22:39.993Z,97583.06
2023-03-19T00:25:08.345Z,97595.09
2023-03-19T00:27:35.349Z,97585.19
2023-03-19T00:30:02.557Z,97574.63
2023-03-19T00:32:30.037Z,97567.38
2023-03-19T00:34:56.674Z,97546.59
2023-03-19T00:37:23.486Z,97525.03
2023-03-19T00:39:50.256Z,97499.31
2023-03-19T00:42:16.722Z,97468.16
2023-03-19T00:44:43.089Z,97463.38
2023-03-19T00:47:09.917Z,97431.25
2023-03-19T00:49:38.306Z,97442.44
2023-03-19T00:52:05.062Z,97425.84
2023-03-19T00:54:32.480Z,97449.53
2023-03-19T00:56:59.077Z,97480.94
2023-03-19T00:59:25.744Z,97460.00
2023-03-19T01:01:52.563Z,97464.38
2023-03-19T01:04:19.173Z,97482.56
2023-03-19T01:06:46.203Z,97486.31
2023-03-19T01:09:12.959Z,97490.66
2023-03-19T01:11:39.468Z,97490.13
2023-03-19T01:14:10.858Z,97500.41
2023-03-19T01:16:37.446Z,97489.50
2023-03-19T01:19:04.349Z,97470.66
2023-03-19T01:21:31.233Z,97487.50
2023-03-19T01:23:58.659Z,97457.31
2023-03-19T01:26:25.451Z,97437.97
2023-03-19T01:28:52.491Z,97425.88
2023-03-19T01:31:19.459Z,97441.75
2023-03-19T01:33:46.463Z,97444.22
2023-03-19T01:36:13.244Z,97428.03
2023-03-19T01:38:40.488Z,97413.69
2023-03-19T01:41:07.767Z,97368.84
2023-03-19T01:43:34.184Z,97355.28
2023-03-19T01:46:08.260Z,97344.09
2023-03-19T01:48:39.906Z,97338.50
2023-03-19T01:51:11.089Z,97322.44
2023-03-19T01:53:43.751Z,97322.63
2023-03-19T01:56:19.416Z,97312.72
2023-03-19T01:58:48.635Z,97316.34
2023-03-19T02:01:15.590Z,97306.94
2023-03-19T02:03:42.430Z,97293.59
2023-03-19T02:06:12.297Z,97298.16
2023-03-19T02:08:40.503Z,97283.72
2023-03-19T02:11:08.019Z,97269.31
2023-03-19T02:13:36.586Z,97273.50
2023-03-19T02:16:03.284Z,97272.25
2023-03-19T02:18:30.969Z,97269.66
2023-03-19T02:21:06.920Z,97275.66
2023-03-19T02:23:51.633Z,97259.84
2023-03-19T02:26:23.689Z,97238.47
2023-03-19T02:28:52.030Z,97207.41
2023-03-19T02:31:19.305Z,97175.59
2023-03-19T02:34:00.631Z,97161.44
2023-03-19T02:36:34.000Z,97151.88
2023-03-19T02:39:03.901Z,97131.56
2023-03-19T02:41:33.311Z,97134.94
2023-03-19T02:44:03.777Z,97112.41
2023-03-19T02:46:30.231Z,97088.22
2023-03-19T02:48:56.766Z,97097.81
2023-03-19T02:51:23.639Z,97096.84
2023-03-19T02:53:51.219Z,97083.28
2023-03-19T02:56:17.912Z,97083.66
2023-03-19T02:58:44.326Z,97109.03
2023-03-19T03:01:10.767Z,97114.34
2023-03-19T03:03:37.440Z,97119.13
2023-03-19T03:06:03.999Z,97117.00
2023-03-19T03:08:32.130Z,97120.09
2023-03-19T03:10:58.582Z,97127.06
2023-03-19T03:13:25.137Z,97170.31
2023-03-19T03:15:51.691Z,97179.84
2023-03-19T03:18:19.342Z,97175.91
2023-03-19T03:20:45.802Z,97173.25
2023-03-19T03:23:12.870Z,97169.47
2023-03-19T03:25:39.236Z,97180.47
2023-03-19T03:28:05.737Z,97174.53
2023-03-19T03:30:32.860Z,97168.28
2023-03-19T03:33:00.648Z,97171.91
2023-03-19T03:35:27.428Z,97174.38
2023-03-19T03:37:53.907Z,97155.91
2023-03-19T03:40:21.658Z,97160.38
2023-03-19T03:42:48.075Z,97156.72
2023-03-19T03:45:15.347Z,97143.06
2023-03-19T03:47:42.974Z,97141.59
2023-03-19T03:50:11.077Z,97130.41
2023-03-19T03:52:39.119Z,97135.22
2023-03-19T03:55:06.204Z,97121.91
2023-03-19T03:57:32.689Z,97112.72
2023-03-19T03:59:59.202Z,97099.97
2023-03-19T04:02:26.264Z,97087.94
2023-03-19T04:04:53.451Z,97091.59
2023-03-19T04:07:20.721Z,97090.63
2023-03-19T04:09:47.324Z,97079.13
2023-03-19T04:12:14.342Z,97057.97
2023-03-19T04:14:46.859Z,97064.97
2023-03-19T04:17:13.246Z,97071.28
2023-03-19T04:19:40.325Z,97073.81
2023-03-19T04:22:08.623Z,97072.84
2023-03-19T04:24:35.172Z,97069.22
2023-03-19T04:27:01.929Z,97073.47
2023-03-19T04:29:28.402Z,97058.00
2023-03-19T04:31:54.834Z,97075.97
2023-03-19T04:34:21.271Z,97071.84
2023-03-19T04:36:48.341Z,97070.28
2023-03-19T04:39:14.908Z,97053.44
2023-03-19T04:41:41.317Z,97044.22
2023-03-19T04:44:08.025Z,97041.94
2023-03-19T04:46:34.532Z,97039.06
2023-03-19T04:49:01.447Z,97058.13
2023-03-19T04:51:28.256Z,97051.06
2023-03-19T04:53:55.060Z,97035.81
2023-03-19T04:56:21.927Z,97028.88
2023-03-19T04:58:48.407Z,97043.00
2023-03-19T05:01:15.020Z,97033.75
2023-03-19T05:03:41.485Z,97042.50
2023-03-19T05:06:08.855Z,97027.97
2023-03-19T05:08:35.885Z,97042.91
2023-03-19T05:11:02.716Z,97049.94
2023-03-19T05:13:29.345Z,97047.81
2023-03-19T05:15:56.904Z,97056.03
2023-03-19T05:18:23.819Z,97043.84
2023-03-19T05:20:51.799Z,97046.94
2023-03-19T05:23:18.428Z,97054.03
2023-03-19T05:25:44.894Z,97051.69
2023-03-19T05:28:12.619Z,97063.66
2023-03-19T05:30:39.670Z,97069.16
2023-03-19T05:33:06.321Z,97070.25
2023-03-19T05:35:37.582Z,97071.25
2023-03-19T05:38:04.114Z,97060.72
2023-03-19T05:40:31.324Z,97065.16
2023-03-19T05:42:57.893Z,97061.03
2023-03-19T05:45:24.432Z,97055.13
2023-03-19T05:47:50.825Z,97051.59
2023-03-19T05:50:18.894Z,97061.34
2023-03-19T05:52:45.805Z,97055.81
2023-03-19T05:55:12.491Z,97055.03
2023-03-19T05:57:39.153Z,97056.19
2023-03-19T06:00:07.770Z,97057.16
2023-03-19T06:02:35.969Z,97054.78
2023-03-19T06:05:02.845Z,97066.91
2023-03-19T06:07:29.528Z,97069.53
2023-03-19T06:09:56.019Z,97083.44
2023-03-19T06:12:22.577Z,97078.19
2023-03-19T06:14:49.701Z,97074.59
2023-03-19T06:17:16.182Z,97068.00
2023-03-19T06:19:42.746Z,97074.97
2023-03-19T06:22:09.442Z,97062.91
2023-03-19T06:24:36.946Z,97068.31
2023-03-19T06:27:10.674Z,97074.19
2023-03-19T06:29:37.281Z,97071.19
2023-03-19T06:32:07.619Z,97072.84
2023-03-19T06:34:34.044Z,97083.22
2023-03-19T06:37:00.622Z,97090.28
2023-03-19T06:39:27.321Z,97091.88
2023-03-19T06:41:54.003Z,97109.59
2023-03-19T06:44:20.451Z,97109.25
2023-03-19T06:46:47.002Z,97112.69
2023-03-19T06:49:13.585Z,97115.72
2023-03-19T06:51:40.341Z,97125.69
2023-03-19T06:54:07.490Z,97132.72
2023-03-19T06:56:36.231Z,97143.31
2023-03-19T06:59:02.722Z,97140.13
2023-03-19T07:01:32.094Z,97156.16
2023-03-19T07:03:58.675Z,97150.50
2023-03-19T07:06:25.248Z,97152.25
2023-03-19T07:08:51.837Z,97150.84
2023-03-19T07:11:18.375Z,97158.09
2023-03-19T07:13:44.764Z,97157.88
2023-03-19T07:16:11.265Z,97170.59
2023-03-19T07:18:37.887Z,97173.69
2023-03-19T07:21:04.801Z,97172.25
2023-03-19T07:23:31.580Z,97201.44
2023-03-19T07:25:58.552Z,97239.13
2023-03-19T07:28:25.172Z,97257.00
2023-03-19T07:30:53.274Z,97238.44
2023-03-19T07:33:21.997Z,97268.84
2023-03-19T07:35:49.007Z,97264.03
2023-03-19T07:38:17.198Z,97269.91
2023-03-19T07:40:55.168Z,97266.97
2023-03-19T07:43:27.624Z,97292.06
2023-03-19T07:45:54.177Z,97319.47
2023-03-19T07:48:26.604Z,97332.78
2023-03-19T07:50:54.312Z,97374.22
2023-03-19T07:53:21.409Z,97372.34
2023-03-19T07:55:48.279Z,97394.47
2023-03-19T07:58:14.967Z,97410.97
2023-03-19T08:00:41.542Z,97425.47
2023-03-19T08:03:07.954Z,97412.16
2023-03-19T08:05:34.601Z,97449.16
2023-03-19T08:08:01.275Z,97469.09
2023-03-19T08:10:27.784Z,97526.28
2023-03-19T08:12:54.202Z,97575.03
2023-03-19T08:15:20.725Z,97577.44
2023-03-19T08:17:47.135Z,97593.56
2023-03-19T08:20:18.697Z,97624.06
2023-03-19T08:22:50.315Z,97663.03
2023-03-19T08:25:16.798Z,97722.84
2023-03-19T08:27:43.435Z,97731.03
2023-03-19T08:30:11.052Z,97800.41
2023-03-19T08:32:38.041Z,97852.91
2023-03-19T08:35:06.158Z,97853.28
2023-03-19T08:37:32.893Z,97831.28
2023-03-19T08:40:00.171Z,97846.50
2023-03-19T08:42:34.702Z,97882.47
2023-03-19T08:45:01.127Z,97893.72
2023-03-19T08:47:32.125Z,97902.78
2023-03-19T08:49:58.569Z,97905.44
2023-03-19T08:52:25.506Z,97984.63
2023-03-19T08:54:51.882Z,98045.94
2023-03-19T08:57:18.432Z,98081.50
2023-03-19T08:59:44.967Z,98124.47
2023-03-19T09:02:12.505Z,98128.84
2023-03-19T09:04:42.945Z,98124.50
2023-03-19T09:07:15.663Z,98127.81
2023-03-19T09:09:44.047Z,98127.25
2023-03-19T09:12:14.106Z,98115.03
2023-03-19T09:14:41.216Z,98113.97
2023-03-19T09:17:07.974Z,98119.44
2023-03-19T09:19:35.201Z,98103.41
2023-03-19T09:22:03.947Z,98100.41
2023-03-19T09:24:30.326Z,98117.69
2023-03-19T09:26:56.744Z,98090.75
2023-03-19T09:29:23.293Z,98101.03
2023-03-19T09:31:49.738Z,98121.72
2023-03-19T09:34:19.447Z,98130.34
2023-03-19T09:36:47.377Z,98116.09
2023-03-19T09:39:16.549Z,98166.78
2023-03-19T09:42:10.765Z,98170.34
2023-03-19T09:44:41.363Z,98171.88
2023-03-19T09:47:26.821Z,98164.25
2023-03-19T09:49:59.308Z,98179.66
2023-03-19T09:52:41.302Z,98226.09
2023-03-19T09:55:40.658Z,98232.66
2023-03-19T09:58:22.173Z,98235.84
2023-03-19T10:00:53.693Z,98244.75
2023-03-19T10:03:45.558Z,98320.28
2023-03-19T10:06:18.142Z,98381.97
2023-03-19T10:08:47.856Z,98371.03
2023-03-19T10:11:27.851Z,98428.59
2023-03-19T10:14:14.778Z,98382.03
2023-03-19T10:16:46.718Z,98434.34
2023-03-19T10:19:18.590Z,98498.38
2023-03-19T10:22:06.059Z,98531.81
2023-03-19T10:24:37.171Z,98556.34
2023-03-19T10:27:16.989Z,98596.78
2023-03-19T10:29:45.043Z,98606.78
2023-03-19T10:32:31.751Z,98574.47
2023-03-19T10:35:01.349Z,98570.53
2023-03-19T10:37:29.866Z,98599.78
2023-03-19T10:39:59.536Z,98598.78
2023-03-19T10:43:03.199Z,98630.09
2023-03-19T10:45:39.164Z,98598.47
2023-03-19T10:48:11.879Z,98612.59
2023-03-19T10:50:45.612Z,98600.25
2023-03-19T10:53:14.760Z,98627.94
2023-03-19T10:55:58.184Z,98638.63
2023-03-19T10:58:29.383Z,98648.66
2023-03-19T11:01:11.104Z,98635.41
2023-03-19T11:03:40.872Z,98633.53
2023-03-19T11:06:18.347Z,98644.91
2023-03-19T11:09:10.399Z,98638.75
2023-03-19T11:11:44.065Z,98668.75
2023-03-19T11:14:15.978Z,98672.69
2023-03-19T11:17:04.682Z,98699.00
2023-03-19T11:19:42.876Z,98704.53
2023-03-19T11:22:12.453Z,98716.78
2023-03-19T11:24:41.064Z,98730.25
2023-03-19T11:27:09.923Z,98726.16
2023-03-19T11:29:44.764Z,98737.28
2023-03-19T11:32:30.715Z,98721.59
2023-03-19T11:35:11.944Z,98729.88
2023-03-19T11:37:48.035Z,98749.78
2023-03-19T11:40:25.174Z,98726.19
2023-03-19T11:43:21.298Z,98740.75
2023-03-19T11:46:11.470Z,98735.94
2023-03-19T11:48:58.794Z,98715.16
2023-03-19T11:51:36.407Z,98716.03
2023-03-19T11:54:21.470Z,98750.16
2023-03-19T11:57:00.898Z,98747.59
2023-03-19T11:59:44.047Z,98757.69
2023-03-19T12:02:16.749Z,98769.00
2023-03-19T12:05:03.816Z,98786.69
2023-03-19T12:07:39.676Z,98791.94
2023-03-19T12:10:28.062Z,98772.66
2023-03-19T12:13:30.502Z,98778.84
2023-03-19T12:16:28.906Z,98782.13
2023-03-19T12:19:29.552Z,98794.38
2023-03-19T12:22:19.472Z,98767.69
2023-03-19T12:25:00.913Z,98793.13
2023-03-19T12:27:53.382Z,98767.50
2023-03-19T12:30:57.467Z,98777.41
2023-03-19T12:33:30.613Z,98764.38
2023-03-19T12:36:01.751Z,98768.25
2023-03-19T12:38:45.784Z,98770.47
2023-03-19T12:41:24.323Z,98787.50
2023-03-19T12:44:12.408Z,98790.59
2023-03-19T12:46:46.629Z,98761.09
2023-03-19T12:49:28.476Z,98758.03
2023-03-19T12:52:15.011Z,98753.78
2023-03-19T12:54:46.740Z,98779.13
2023-03-19T12:57:16.112Z,98800.66
2023-03-19T12:59:51.727Z,98792.19
2023-03-19T13:02:48.073Z,98786.59
2023-03-19T13:05:14.714Z,98777.00
2023-03-19T13:08:01.404Z,98785.72
2023-03-19T13:10:32.552Z,98783.84
2023-03-19T13:13:02.268Z,98796.16
2023-03-19T13:15:36.503Z,98819.03
2023-03-19T13:18:15.997Z,98824.09
2023-03-19T13:21:01.300Z,98817.31
2023-03-19T13:23:32.459Z,98823.69
2023-03-19T13:26:00.639Z,98814.00
2023-03-19T13:28:30.747Z,98811.72
2023-03-19T13:31:07.171Z,98823.09
2023-03-19T13:33:37.562Z,98811.19
2023-03-19T13:36:14.582Z,98808.13
2023-03-19T13:38:49.093Z,98796.16
2023-03-19T13:41:44.929Z,98791.13
2023-03-19T13:44:30.490Z,98788.38
2023-03-19T13:47:00.740Z,98788.75
2023-03-19T13:49:33.485Z,98796.88
2023-03-19T13:52:04.805Z,98775.72
2023-03-19T13:54:45.954Z,98778.69
2023-03-19T13:57:15.899Z,98774.72
2023-03-19T13:59:46.732Z,98775.13
2023-03-19T14:02:22.398Z,98759.34
2023-03-19T14:05:04.521Z,98766.06
2023-03-19T14:07:40.464Z,98762.31
2023-03-19T14:10:29.876Z,98785.91
2023-03-19T14:13:14.318Z,98778.63
2023-03-19T14:15:48.103Z,98739.22
2023-03-19T14:18:20.862Z,98708.13
2023-03-19T14:20:56.823Z,98705.38
2023-03-19T14:23:40.574Z,98667.19
2023-03-19T14:26:16.375Z,98589.00
2023-03-19T14:28:51.776Z,98523.44
2023-03-19T14:31:33.628Z,98215.75
2023-03-19T14:34:07.934Z,97751.53
2023-03-19T14:36:38.325Z,97610.34
2023-03-19T14:39:24.997Z,97628.81
2023-03-19T14:42:06.334Z,97610.78
2023-03-19T14:44:35.662Z,97606.19
2023-03-19T14:47:39.784Z,97660.72
2023-03-19T14:50:27.471Z,97617.38
2023-03-19T14:53:14.518Z,97595.69
2023-03-19T14:55:42.218Z,97585.22
2023-03-19T14:58:12.856Z,97583.53
2023-03-19T15:00:46.917Z,97583.31
2023-03-19T15:03:21.983Z,97531.75
2023-03-19T15:05:51.117Z,97571.88
2023-03-19T15:08:26.527Z,97661.16
2023-03-19T15:11:14.452Z,97738.16
2023-03-19T15:13:51.046Z,97748.94
2023-03-19T15:16:40.061Z,97744.09
2023-03-19T15:19:09.927Z,97694.44
2023-03-19T15:21:38.031Z,97700.97
2023-03-19T15:24:07.071Z,97621.34
2023-03-19T15:26:37.647Z,97627.56
2023-03-19T15:29:04.659Z,97602.75
2023-03-19T15:31:51.725Z,97567.00
2023-03-19T15:34:35.451Z,97571.84
2023-03-19T15:37:13.776Z,97632.81
2023-03-19T15:39:45.507Z,97637.88
2023-03-19T15:42:14.289Z,97576.19
2023-03-19T15:44:46.882Z,97579.06
2023-03-19T15:47:24.770Z,97543.44
2023-03-19T15:50:07.567Z,97579.22
2023-03-19T15:52:38.716Z,97564.44
2023-03-19T15:55:06.819Z,97590.03
2023-03-19T15:57:36.531Z,97594.06
2023-03-19T16:00:06.300Z,97573.16
2023-03-19T16:02:35.040Z,97604.25
2023-03-19T16:05:20.889Z,97570.63
2023-03-19T16:07:55.294Z,97580.66
2023-03-19T16:10:27.944Z,97584.44
2023-03-19T16:12:55.946Z,97553.66
2023-03-19T16:15:30.318Z,97552.53
2023-03-19T16:18:22.462Z,97556.22
2023-03-19T16:21:08.646Z,97603.38
2023-03-19T16:23:45.840Z,97609.91
2023-03-19T16:26:22.496Z,97628.03
2023-03-19T16:28:59.299Z,97632.16
2023-03-19T16:31:30.285Z,97594.00
2023-03-19T16:33:57.100Z,97624.00
2023-03-19T16:36:27.778Z,97619.81
2023-03-19T16:38:58.225Z,97631.59
2023-03-19T16:41:26.622Z,97637.75
2023-03-19T16:43:54.469Z,97647.63
2023-03-19T16:46:21.379Z,97672.94
2023-03-19T16:48:47.918Z,97666.84
2023-03-19T16:51:18.395Z,97674.78
2023-03-19T16:53:46.259Z,97688.91
2023-03-19T16:56:20.207Z,97688.44
2023-03-19T16:58:48.223Z,97689.59
2023-03-19T17:01:18.081Z,97680.66
2023-03-19T17:03:45.766Z,97710.47
2023-03-19T17:06:14.113Z,97631.16
2023-03-19T17:08:41.782Z,97531.91
2023-03-19T17:11:28.343Z,97479.06
2023-03-19T17:13:57.633Z,97446.78
2023-03-19T17:16:24.483Z,97407.81
2023-03-19T17:18:51.157Z,97357.50
2023-03-19T17:21:33.293Z,97314.69
2023-03-19T17:24:15.311Z,97259.25
2023-03-19T17:26:41.820Z,97205.25
2023-03-19T17:29:08.298Z,97151.84
2023-03-19T17:31:35.445Z,97124.81
2023-03-19T17:34:10.465Z,97113.38
2023-03-19T17:36:37.530Z,97049.25
2023-03-19T17:39:07.053Z,97076.31
2023-03-19T17:41:35.424Z,97064.97
2023-03-19T17:44:06.615Z,97064.88
2023-03-19T17:47:00.028Z,97058.88
2023-03-19T17:49:30.049Z,97051.31
2023-03-19T17:51:57.177Z,97058.41
2023-03-19T17:54:25.897Z,97040.97
2023-03-19T17:56:53.121Z,97074.38
2023-03-19T17:59:19.703Z,97057.47
2023-03-19T18:01:48.780Z,97048.72
2023-03-19T18:04:20.704Z,97029.66
2023-03-19T18:06:54.339Z,97015.38
2023-03-19T18:09:28.321Z,97028.03
2023-03-19T18:11:55.568Z,97007.53
2023-03-19T18:14:22.031Z,97016.13
2023-03-19T18:16:48.725Z,97004.00
2023-03-19T18:19:24.993Z,96994.63
2023-03-19T18:21:51.713Z,96996.16
2023-03-19T18:24:18.158Z,96935.72
2023-03-19T18:26:44.637Z,96996.47
2023-03-19T18:29:11.405Z,96979.06
2023-03-19T18:31:38.455Z,96973.84
2023-03-19T18:34:08.057Z,96956.09
2023-03-19T18:36:36.353Z,96958.34
2023-03-19T18:39:03.503Z,96942.63
2023-03-19T18:41:31.292Z,96932.84
2023-03-19T18:43:57.932Z,96921.44
2023-03-19T18:46:29.916Z,96926.28
2023-03-19T18:49:00.150Z,96936.41
2023-03-19T18:51:27.631Z,96937.69
2023-03-19T18:53:55.264Z,96920.00
2023-03-19T18:56:28.162Z,96900.88
2023-03-19T18:58:56.322Z,96886.88
2023-03-19T19:01:23.108Z,96874.63
2023-03-19T19:03:50.150Z,96867.16
2023-03-19T19:06:40.086Z,96859.81
2023-03-19T19:09:12.759Z,96832.53
2023-03-19T19:11:42.166Z,96841.13
2023-03-19T19:14:21.952Z,96837.44
2023-03-19T19:16:49.130Z,96827.91
2023-03-19T19:19:18.678Z,96823.97
2023-03-19T19:21:45.512Z,96816.19
2023-03-19T19:24:14.868Z,96795.03
2023-03-19T19:26:44.258Z,96780.75
2023-03-19T19:29:17.526Z,96774.41
2023-03-19T19:31:44.114Z,96753.78
2023-03-19T19:34:15.711Z,96725.03
2023-03-19T19:36:42.912Z,96709.00
2023-03-19T19:39:10.560Z,96688.72
2023-03-19T19:41:38.810Z,96672.63
2023-03-19T19:44:05.935Z,96672.03
2023-03-19T19:46:32.543Z,96664.31
2023-03-19T19:48:59.402Z,96648.22
2023-03-19T19:51:28.249Z,96639.88
2023-03-19T19:53:55.213Z,96639.06
2023-03-19T19:56:25.278Z,96628.72
2023-03-19T19:58:54.047Z,96618.56
2023-03-19T20:01:23.441Z,96612.25
2023-03-19T20:03:50.597Z,96619.59
2023-03-19T20:06:17.225Z,96644.00
2023-03-19T20:08:44.415Z,96654.59
2023-03-19T20:11:23.364Z,96665.00
2023-03-19T20:13:55.560Z,96690.84
2023-03-19T20:16:24.755Z,96714.66
2023-03-19T20:18:53.729Z,96717.09
2023-03-19T20:21:20.663Z,96727.28
2023-03-19T20:23:48.266Z,96729.94
2023-03-19T20:26:19.262Z,96751.91
2023-03-19T20:28:46.719Z,96764.22
2023-03-19T20:31:23.993Z,96749.38
2023-03-19T20:33:50.412Z,96742.44
2023-03-19T20:36:17.357Z,96720.84
2023-03-19T20:38:44.037Z,96707.00
2023-03-19T20:41:20.197Z,96668.50
2023-03-19T20:43:47.553Z,96643.50
2023-03-19T20:46:15.270Z,96630.09
2023-03-19T20:48:41.780Z,96618.72
2023-03-19T20:51:17.434Z,96613.44
2023-03-19T20:53:44.368Z,96610.81
2023-03-19T20:56:16.022Z,96625.41
2023-03-19T20:58:42.540Z,96626.84
2023-03-19T21:01:10.694Z,96636.03
2023-03-19T21:03:38.112Z,96631.75
2023-03-19T21:06:11.450Z,96634.22
2023-03-19T21:08:44.448Z,96654.56
2023-03-19T21:11:39.268Z,96657.03
2023-03-19T21:14:06.403Z,96670.63
2023-03-19T21:16:34.015Z,96655.34
2023-03-19T21:19:00.525Z,96645.19
2023-03-19T21:21:33.383Z,96642.75
2023-03-19T21:24:11.377Z,96652.56
2023-03-19T21:26:40.326Z,96674.06
2023-03-19T21:29:13.170Z,96675.31
2023-03-19T21:31:39.761Z,96672.03
2023-03-19T21:34:06.350Z,96680.97
2023-03-19T21:36:33.400Z,96672.41
2023-03-19T21:38:59.831Z,96682.16
2023-03-19T21:41:30.378Z,96692.53
2023-03-19T21:43:59.434Z,96673.13
2023-03-19T21:46:28.930Z,96674.97
2023-03-19T21:48:57.045Z,96660.88
2023-03-19T21:51:25.188Z,96648.31
2023-03-19T21:53:52.230Z,96627.53
2023-03-19T21:56:25.596Z,96638.78
2023-03-19T21:58:53.086Z,96633.34
2023-03-19T22:01:23.728Z,96644.16
2023-03-19T22:03:52.019Z,96655.78
2023-03-19T22:06:19.858Z,96674.63
2023-03-19T22:08:49.051Z,96686.69
2023-03-19T22:11:19.750Z,96706.78
2023-03-19T22:13:47.328Z,96710.50
2023-03-19T22:16:20.985Z,96711.09
2023-03-19T22:18:50.718Z,96731.81
2023-03-19T22:21:19.652Z,96741.50
2023-03-19T22:23:47.166Z,96742.69
2023-03-19T22:26:31.846Z,96739.84
2023-03-19T22:29:01.086Z,96752.13
2023-03-19T22:31:28.514Z,96811.00
2023-03-19T22:33:55.530Z,96877.97
2023-03-19T22:36:23.462Z,96950.69
2023-03-19T22:38:50.664Z,97031.13
2023-03-19T22:41:29.365Z,97079.03
2023-03-19T22:43:58.494Z,97135.41
2023-03-19T22:46:25.617Z,97171.22
2023-03-19T22:48:53.088Z,97207.44
2023-03-19T22:51:23.875Z,97211.75
2023-03-19T22:53:51.760Z,97261.72
2023-03-19T22:56:19.662Z,97280.25
2023-03-19T22:58:47.002Z,97299.78
2023-03-19T23:01:23.139Z,97322.22
2023-03-19T23:03:50.580Z,97338.66
2023-03-19T23:06:29.742Z,97349.50
2023-03-19T23:08:57.416Z,97378.16
2023-03-19T23:11:24.446Z,97387.94
2023-03-19T23:13:51.520Z,97391.75
2023-03-19T23:16:24.141Z,97410.94
2023-03-19T23:18:51.564Z,97420.34
2023-03-19T23:21:27.010Z,97431.34
2023-03-19T23:23:53.603Z,97449.25
2023-03-19T23:26:27.211Z,97457.91
2023-03-19T23:28:54.419Z,97467.97
2023-03-19T23:31:21.128Z,97458.63
2023-03-19T23:33:51.316Z,97462.91
2023-03-19T23:36:21.019Z,97465.94
2023-03-19T23:38:47.680Z,97455.44
2023-03-19T23:41:25.012Z,97458.78
2023-03-19T23:43:52.897Z,97448.28
2023-03-19T23:46:20.819Z,97435.31
2023-03-19T23:48:47.499Z,97438.88
2023-03-19T23:51:15.804Z,97449.03
2023-03-19T23:53:43.649Z,97458.28
2023-03-19T23:56:26.115Z,97455.78
